sensor_id;sensor_type;location;lat;lon;timestamp;temperature;humidity
17795;DHT22;9021;50.882;4.326;2023-10-08T00:00:44;18.40;97.60
17795;DHT22;9021;50.882;4.326;2023-10-08T00:03:15;18.30;97.70
17795;DHT22;9021;50.882;4.326;2023-10-08T00:05:41;18.40;97.70
17795;DHT22;9021;50.882;4.326;2023-10-08T00:08:07;18.30;97.80
17795;DHT22;9021;50.882;4.326;2023-10-08T00:10:36;18.40;97.70
17795;DHT22;9021;50.882;4.326;2023-10-08T00:13:03;18.30;97.60
17795;DHT22;9021;50.882;4.326;2023-10-08T00:15:28;18.30;97.70
17795;DHT22;9021;50.882;4.326;2023-10-08T00:17:55;18.40;97.70
17795;DHT22;9021;50.882;4.326;2023-10-08T00:20:24;18.30;97.70
17795;DHT22;9021;50.882;4.326;2023-10-08T00:23:03;18.20;97.80
17795;DHT22;9021;50.882;4.326;2023-10-08T00:25:33;18.30;97.60
17795;DHT22;9021;50.882;4.326;2023-10-08T00:27:59;18.10;97.80
17795;DHT22;9021;50.882;4.326;2023-10-08T00:30:27;18.00;98.00
17795;DHT22;9021;50.882;4.326;2023-10-08T00:32:52;17.90;98.10
17795;DHT22;9021;50.882;4.326;2023-10-08T00:35:18;17.80;98.30
17795;DHT22;9021;50.882;4.326;2023-10-08T00:37:46;17.90;98.20
17795;DHT22;9021;50.882;4.326;2023-10-08T00:40:13;17.90;98.20
17795;DHT22;9021;50.882;4.326;2023-10-08T00:42:39;17.90;98.40
17795;DHT22;9021;50.882;4.326;2023-10-08T00:45:11;17.90;98.30
17795;DHT22;9021;50.882;4.326;2023-10-08T00:47:39;17.90;98.30
17795;DHT22;9021;50.882;4.326;2023-10-08T00:50:11;18.00;98.50
17795;DHT22;9021;50.882;4.326;2023-10-08T00:52:56;18.00;98.30
17795;DHT22;9021;50.882;4.326;2023-10-08T00:55:25;18.00;98.40
17795;DHT22;9021;50.882;4.326;2023-10-08T00:57:58;17.90;98.50
17795;DHT22;9021;50.882;4.326;2023-10-08T01:00:24;17.90;98.80
17795;DHT22;9021;50.882;4.326;2023-10-08T01:02:57;17.90;99.00
17795;DHT22;9021;50.882;4.326;2023-10-08T01:05:26;17.80;99.50
17795;DHT22;9021;50.882;4.326;2023-10-08T01:08:08;17.70;98.90
17795;DHT22;9021;50.882;4.326;2023-10-08T01:10:37;17.90;99.10
17795;DHT22;9021;50.882;4.326;2023-10-08T01:13:03;17.80;99.30
17795;DHT22;9021;50.882;4.326;2023-10-08T01:15:39;17.90;99.10
17795;DHT22;9021;50.882;4.326;2023-10-08T01:18:06;17.80;99.00
17795;DHT22;9021;50.882;4.326;2023-10-08T01:20:40;17.80;99.40
17795;DHT22;9021;50.882;4.326;2023-10-08T01:23:14;17.80;99.80
17795;DHT22;9021;50.882;4.326;2023-10-08T01:25:45;17.70;99.50
17795;DHT22;9021;50.882;4.326;2023-10-08T01:28:16;17.60;99.30
17795;DHT22;9021;50.882;4.326;2023-10-08T01:30:48;17.60;99.30
17795;DHT22;9021;50.882;4.326;2023-10-08T01:33:16;17.60;99.40
17795;DHT22;9021;50.882;4.326;2023-10-08T01:35:46;17.60;99.50
17795;DHT22;9021;50.882;4.326;2023-10-08T01:38:14;17.60;99.80
17795;DHT22;9021;50.882;4.326;2023-10-08T01:40:40;17.50;99.50
17795;DHT22;9021;50.882;4.326;2023-10-08T01:43:06;17.40;99.70
17795;DHT22;9021;50.882;4.326;2023-10-08T01:45:31;17.60;99.70
17795;DHT22;9021;50.882;4.326;2023-10-08T01:48:04;17.50;99.30
17795;DHT22;9021;50.882;4.326;2023-10-08T01:50:40;17.50;99.60
17795;DHT22;9021;50.882;4.326;2023-10-08T01:53:05;17.40;99.90
17795;DHT22;9021;50.882;4.326;2023-10-08T01:55:35;17.40;99.70
17795;DHT22;9021;50.882;4.326;2023-10-08T01:58:14;17.40;99.90
17795;DHT22;9021;50.882;4.326;2023-10-08T02:00:45;17.40;99.80
17795;DHT22;9021;50.882;4.326;2023-10-08T02:03:11;20.40;99.90
17795;DHT22;9021;50.882;4.326;2023-10-08T02:05:37;17.70;99.90
17795;DHT22;9021;50.882;4.326;2023-10-08T02:08:11;17.30;99.90
17795;DHT22;9021;50.882;4.326;2023-10-08T02:10:41;17.20;99.90
17795;DHT22;9021;50.882;4.326;2023-10-08T02:13:18;17.20;99.90
17795;DHT22;9021;50.882;4.326;2023-10-08T02:15:45;19.30;99.90
17795;DHT22;9021;50.882;4.326;2023-10-08T02:18:11;17.20;99.90
17795;DHT22;9021;50.882;4.326;2023-10-08T02:20:38;17.20;99.90
17795;DHT22;9021;50.882;4.326;2023-10-08T02:23:05;17.30;99.90
17795;DHT22;9021;50.882;4.326;2023-10-08T02:25:31;17.10;99.90
17795;DHT22;9021;50.882;4.326;2023-10-08T02:27:59;17.10;99.90
17795;DHT22;9021;50.882;4.326;2023-10-08T02:30:31;16.90;99.90
17795;DHT22;9021;50.882;4.326;2023-10-08T02:32:56;17.10;99.90
17795;DHT22;9021;50.882;4.326;2023-10-08T02:35:23;16.90;99.90
17795;DHT22;9021;50.882;4.326;2023-10-08T02:37:49;16.90;99.90
17795;DHT22;9021;50.882;4.326;2023-10-08T02:40:14;17.00;99.90
17795;DHT22;9021;50.882;4.326;2023-10-08T02:43:06;16.90;99.90
17795;DHT22;9021;50.882;4.326;2023-10-08T02:45:34;16.90;99.90
17795;DHT22;9021;50.882;4.326;2023-10-08T02:48:04;16.90;99.90
17795;DHT22;9021;50.882;4.326;2023-10-08T02:50:39;16.80;99.90
17795;DHT22;9021;50.882;4.326;2023-10-08T02:53:05;16.80;99.90
17795;DHT22;9021;50.882;4.326;2023-10-08T02:55:39;16.90;99.90
17795;DHT22;9021;50.882;4.326;2023-10-08T02:58:09;16.90;99.90
17795;DHT22;9021;50.882;4.326;2023-10-08T03:00:43;16.80;99.90
17795;DHT22;9021;50.882;4.326;2023-10-08T03:03:09;20.20;99.90
17795;DHT22;9021;50.882;4.326;2023-10-08T03:05:47;16.90;99.90
17795;DHT22;9021;50.882;4.326;2023-10-08T03:08:16;16.90;99.90
17795;DHT22;9021;50.882;4.326;2023-10-08T03:10:49;16.90;99.90
17795;DHT22;9021;50.882;4.326;2023-10-08T03:13:16;16.90;99.90
17795;DHT22;9021;50.882;4.326;2023-10-08T03:15:42;16.90;99.90
17795;DHT22;9021;50.882;4.326;2023-10-08T03:18:26;16.90;99.90
17795;DHT22;9021;50.882;4.326;2023-10-08T03:21:01;16.90;99.90
17795;DHT22;9021;50.882;4.326;2023-10-08T03:23:29;17.00;99.90
17795;DHT22;9021;50.882;4.326;2023-10-08T03:26:09;17.00;99.90
17795;DHT22;9021;50.882;4.326;2023-10-08T03:28:36;17.00;99.90
17795;DHT22;9021;50.882;4.326;2023-10-08T03:31:03;17.00;99.90
17795;DHT22;9021;50.882;4.326;2023-10-08T03:33:30;17.00;99.90
17795;DHT22;9021;50.882;4.326;2023-10-08T03:36:03;17.00;99.90
17795;DHT22;9021;50.882;4.326;2023-10-08T03:38:36;17.00;99.90
17795;DHT22;9021;50.882;4.326;2023-10-08T03:41:21;16.90;99.90
17795;DHT22;9021;50.882;4.326;2023-10-08T03:43:49;16.90;99.90
17795;DHT22;9021;50.882;4.326;2023-10-08T03:46:30;17.00;99.90
17795;DHT22;9021;50.882;4.326;2023-10-08T03:48:56;17.00;99.90
17795;DHT22;9021;50.882;4.326;2023-10-08T03:51:23;16.90;99.90
17795;DHT22;9021;50.882;4.326;2023-10-08T03:53:52;16.80;99.90
17795;DHT22;9021;50.882;4.326;2023-10-08T03:56:25;16.80;99.90
17795;DHT22;9021;50.882;4.326;2023-10-08T03:58:54;16.80;99.90
17795;DHT22;9021;50.882;4.326;2023-10-08T04:01:21;16.80;99.90
17795;DHT22;9021;50.882;4.326;2023-10-08T04:03:47;16.80;99.90
17795;DHT22;9021;50.882;4.326;2023-10-08T04:06:33;16.80;99.90
17795;DHT22;9021;50.882;4.326;2023-10-08T04:09:01;16.80;99.90
17795;DHT22;9021;50.882;4.326;2023-10-08T04:11:47;16.80;99.90
17795;DHT22;9021;50.882;4.326;2023-10-08T04:14:24;16.90;99.90
17795;DHT22;9021;50.882;4.326;2023-10-08T04:16:50;16.90;99.90
17795;DHT22;9021;50.882;4.326;2023-10-08T04:19:19;16.80;99.90
17795;DHT22;9021;50.882;4.326;2023-10-08T04:21:46;16.70;99.90
17795;DHT22;9021;50.882;4.326;2023-10-08T04:24:23;16.70;99.90
17795;DHT22;9021;50.882;4.326;2023-10-08T04:26:53;16.70;99.90
17795;DHT22;9021;50.882;4.326;2023-10-08T04:29:21;16.70;99.90
17795;DHT22;9021;50.882;4.326;2023-10-08T04:31:48;16.60;99.90
17795;DHT22;9021;50.882;4.326;2023-10-08T04:34:19;16.60;99.90
17795;DHT22;9021;50.882;4.326;2023-10-08T04:36:48;16.70;99.90
17795;DHT22;9021;50.882;4.326;2023-10-08T04:39:20;16.70;99.90
17795;DHT22;9021;50.882;4.326;2023-10-08T04:42:03;16.60;99.90
17795;DHT22;9021;50.882;4.326;2023-10-08T04:44:36;16.60;99.90
17795;DHT22;9021;50.882;4.326;2023-10-08T04:47:12;16.50;99.90
17795;DHT22;9021;50.882;4.326;2023-10-08T04:49:56;16.40;99.90
17795;DHT22;9021;50.882;4.326;2023-10-08T04:52:24;16.40;99.90
17795;DHT22;9021;50.882;4.326;2023-10-08T04:54:53;16.40;99.90
17795;DHT22;9021;50.882;4.326;2023-10-08T04:57:22;16.40;99.90
17795;DHT22;9021;50.882;4.326;2023-10-08T04:59:51;16.40;99.90
17795;DHT22;9021;50.882;4.326;2023-10-08T05:02:18;16.40;99.90
17795;DHT22;9021;50.882;4.326;2023-10-08T05:04:58;16.30;99.90
17795;DHT22;9021;50.882;4.326;2023-10-08T05:07:37;16.30;99.90
17795;DHT22;9021;50.882;4.326;2023-10-08T05:10:24;16.30;99.90
17795;DHT22;9021;50.882;4.326;2023-10-08T05:12:51;13.50;99.90
17795;DHT22;9021;50.882;4.326;2023-10-08T05:15:37;16.30;99.90
17795;DHT22;9021;50.882;4.326;2023-10-08T05:18:23;16.30;99.90
17795;DHT22;9021;50.882;4.326;2023-10-08T05:21:03;16.20;99.90
17795;DHT22;9021;50.882;4.326;2023-10-08T05:23:49;16.20;99.90
17795;DHT22;9021;50.882;4.326;2023-10-08T05:26:39;16.10;99.90
17795;DHT22;9021;50.882;4.326;2023-10-08T05:29:11;16.10;99.90
17795;DHT22;9021;50.882;4.326;2023-10-08T05:32:15;16.10;99.90
17795;DHT22;9021;50.882;4.326;2023-10-08T05:35:04;16.00;99.90
17795;DHT22;9021;50.882;4.326;2023-10-08T05:37:54;16.10;99.90
17795;DHT22;9021;50.882;4.326;2023-10-08T05:40:38;14.30;99.90
17795;DHT22;9021;50.882;4.326;2023-10-08T05:43:37;16.00;99.90
17795;DHT22;9021;50.882;4.326;2023-10-08T05:46:03;16.00;99.90
17795;DHT22;9021;50.882;4.326;2023-10-08T05:48:47;16.00;99.90
17795;DHT22;9021;50.882;4.326;2023-10-08T05:51:31;19.90;99.90
17795;DHT22;9021;50.882;4.326;2023-10-08T05:54:12;15.90;99.90
17795;DHT22;9021;50.882;4.326;2023-10-08T05:57:02;15.90;99.90
17795;DHT22;9021;50.882;4.326;2023-10-08T05:59:37;15.90;99.90
17795;DHT22;9021;50.882;4.326;2023-10-08T06:02:21;15.90;99.90
17795;DHT22;9021;50.882;4.326;2023-10-08T06:04:59;16.00;99.90
17795;DHT22;9021;50.882;4.326;2023-10-08T06:10:15;16.00;99.90
17795;DHT22;9021;50.882;4.326;2023-10-08T06:13:09;15.80;99.90
17795;DHT22;9021;50.882;4.326;2023-10-08T06:18:12;16.00;99.90
17795;DHT22;9021;50.882;4.326;2023-10-08T06:20:43;16.00;99.90
17795;DHT22;9021;50.882;4.326;2023-10-08T06:23:12;16.00;99.90
17795;DHT22;9021;50.882;4.326;2023-10-08T06:25:41;16.10;99.90
17795;DHT22;9021;50.882;4.326;2023-10-08T06:28:16;16.10;99.90
17795;DHT22;9021;50.882;4.326;2023-10-08T06:30:45;16.10;99.90
17795;DHT22;9021;50.882;4.326;2023-10-08T06:33:11;16.00;99.90
17795;DHT22;9021;50.882;4.326;2023-10-08T06:35:37;16.00;99.90
17795;DHT22;9021;50.882;4.326;2023-10-08T06:38:02;16.20;99.90
17795;DHT22;9021;50.882;4.326;2023-10-08T06:40:36;16.40;99.90
17795;DHT22;9021;50.882;4.326;2023-10-08T06:43:02;16.50;99.90
17795;DHT22;9021;50.882;4.326;2023-10-08T06:45:40;17.00;99.90
17795;DHT22;9021;50.882;4.326;2023-10-08T06:48:06;16.80;99.90
17795;DHT22;9021;50.882;4.326;2023-10-08T06:50:32;16.90;99.90
17795;DHT22;9021;50.882;4.326;2023-10-08T06:52:59;17.00;99.90
17795;DHT22;9021;50.882;4.326;2023-10-08T06:55:31;17.20;99.90
17795;DHT22;9021;50.882;4.326;2023-10-08T06:57:57;17.30;99.90
17795;DHT22;9021;50.882;4.326;2023-10-08T07:00:22;17.30;99.90
17795;DHT22;9021;50.882;4.326;2023-10-08T07:03:03;17.50;99.90
17795;DHT22;9021;50.882;4.326;2023-10-08T07:05:28;17.60;99.90
17795;DHT22;9021;50.882;4.326;2023-10-08T07:07:54;17.70;99.90
17795;DHT22;9021;50.882;4.326;2023-10-08T07:10:20;17.80;99.90
17795;DHT22;9021;50.882;4.326;2023-10-08T07:12:48;18.00;99.90
17795;DHT22;9021;50.882;4.326;2023-10-08T07:15:15;18.10;99.90
17795;DHT22;9021;50.882;4.326;2023-10-08T07:17:49;18.30;99.90
17795;DHT22;9021;50.882;4.326;2023-10-08T07:20:16;18.60;99.90
17795;DHT22;9021;50.882;4.326;2023-10-08T07:22:47;18.90;99.90
17795;DHT22;9021;50.882;4.326;2023-10-08T07:25:20;19.10;99.90
17795;DHT22;9021;50.882;4.326;2023-10-08T07:27:46;19.30;99.90
17795;DHT22;9021;50.882;4.326;2023-10-08T07:30:12;19.30;99.90
17795;DHT22;9021;50.882;4.326;2023-10-08T07:32:38;19.20;99.90
17795;DHT22;9021;50.882;4.326;2023-10-08T07:35:04;19.00;99.90
17795;DHT22;9021;50.882;4.326;2023-10-08T07:38:02;19.00;99.90
17795;DHT22;9021;50.882;4.326;2023-10-08T07:40:28;19.20;99.90
17795;DHT22;9021;50.882;4.326;2023-10-08T07:42:56;19.40;99.90
17795;DHT22;9021;50.882;4.326;2023-10-08T07:45:21;19.50;99.90
17795;DHT22;9021;50.882;4.326;2023-10-08T07:47:47;19.70;99.90
17795;DHT22;9021;50.882;4.326;2023-10-08T07:50:13;19.70;99.90
17795;DHT22;9021;50.882;4.326;2023-10-08T07:52:41;19.70;99.90
17795;DHT22;9021;50.882;4.326;2023-10-08T07:55:10;19.80;99.90
17795;DHT22;9021;50.882;4.326;2023-10-08T07:57:35;20.00;99.90
17795;DHT22;9021;50.882;4.326;2023-10-08T08:00:01;20.00;99.90
17795;DHT22;9021;50.882;4.326;2023-10-08T08:02:48;20.10;99.90
17795;DHT22;9021;50.882;4.326;2023-10-08T08:05:15;20.20;99.90
17795;DHT22;9021;50.882;4.326;2023-10-08T08:07:43;20.10;99.90
17795;DHT22;9021;50.882;4.326;2023-10-08T08:10:11;20.00;99.90
17795;DHT22;9021;50.882;4.326;2023-10-08T08:12:37;20.00;99.90
17795;DHT22;9021;50.882;4.326;2023-10-08T08:15:03;20.00;99.90
17795;DHT22;9021;50.882;4.326;2023-10-08T08:17:43;20.00;99.90
17795;DHT22;9021;50.882;4.326;2023-10-08T08:20:13;20.00;99.90
17795;DHT22;9021;50.882;4.326;2023-10-08T08:22:46;20.00;99.90
17795;DHT22;9021;50.882;4.326;2023-10-08T08:25:16;19.90;99.90
17795;DHT22;9021;50.882;4.326;2023-10-08T08:27:52;20.00;99.90
17795;DHT22;9021;50.882;4.326;2023-10-08T08:30:19;20.10;99.90
17795;DHT22;9021;50.882;4.326;2023-10-08T08:32:45;20.10;99.90
17795;DHT22;9021;50.882;4.326;2023-10-08T08:35:15;20.20;99.90
17795;DHT22;9021;50.882;4.326;2023-10-08T08:37:42;20.30;99.90
17795;DHT22;9021;50.882;4.326;2023-10-08T08:40:09;20.40;99.90
17795;DHT22;9021;50.882;4.326;2023-10-08T08:42:46;20.60;99.90
17795;DHT22;9021;50.882;4.326;2023-10-08T08:45:12;20.80;99.90
17795;DHT22;9021;50.882;4.326;2023-10-08T08:47:39;20.80;99.90
17795;DHT22;9021;50.882;4.326;2023-10-08T08:50:08;20.80;99.90
17795;DHT22;9021;50.882;4.326;2023-10-08T08:52:37;20.80;99.90
17795;DHT22;9021;50.882;4.326;2023-10-08T08:55:09;20.70;99.90
17795;DHT22;9021;50.882;4.326;2023-10-08T08:57:50;20.80;99.90
17795;DHT22;9021;50.882;4.326;2023-10-08T09:00:19;20.80;99.90
17795;DHT22;9021;50.882;4.326;2023-10-08T09:02:45;21.00;99.90
17795;DHT22;9021;50.882;4.326;2023-10-08T09:05:12;21.20;99.90
17795;DHT22;9021;50.882;4.326;2023-10-08T09:08:03;21.20;99.90
17795;DHT22;9021;50.882;4.326;2023-10-08T09:10:31;21.20;99.90
17795;DHT22;9021;50.882;4.326;2023-10-08T09:13:02;21.30;99.90
17795;DHT22;9021;50.882;4.326;2023-10-08T09:15:28;21.60;99.90
17795;DHT22;9021;50.882;4.326;2023-10-08T09:17:54;21.60;99.90
17795;DHT22;9021;50.882;4.326;2023-10-08T09:20:21;21.70;99.90
17795;DHT22;9021;50.882;4.326;2023-10-08T09:23:04;21.70;99.90
17795;DHT22;9021;50.882;4.326;2023-10-08T09:25:32;21.80;99.90
17795;DHT22;9021;50.882;4.326;2023-10-08T09:27:58;21.60;99.90
17795;DHT22;9021;50.882;4.326;2023-10-08T09:30:24;21.60;99.90
17795;DHT22;9021;50.882;4.326;2023-10-08T09:32:51;21.50;99.90
17795;DHT22;9021;50.882;4.326;2023-10-08T09:35:16;21.60;99.90
17795;DHT22;9021;50.882;4.326;2023-10-08T09:37:43;21.40;99.90
17795;DHT22;9021;50.882;4.326;2023-10-08T09:40:09;21.60;99.90
17795;DHT22;9021;50.882;4.326;2023-10-08T09:42:37;21.70;99.90
17795;DHT22;9021;50.882;4.326;2023-10-08T09:45:03;21.70;99.90
17795;DHT22;9021;50.882;4.326;2023-10-08T09:47:31;21.70;99.90
17795;DHT22;9021;50.882;4.326;2023-10-08T09:50:01;21.90;99.90
17795;DHT22;9021;50.882;4.326;2023-10-08T09:52:42;22.20;99.90
17795;DHT22;9021;50.882;4.326;2023-10-08T09:55:13;22.50;99.90
17795;DHT22;9021;50.882;4.326;2023-10-08T09:57:42;23.10;99.90
17795;DHT22;9021;50.882;4.326;2023-10-08T10:00:08;23.20;99.90
17795;DHT22;9021;50.882;4.326;2023-10-08T10:02:43;23.70;99.90
17795;DHT22;9021;50.882;4.326;2023-10-08T10:05:12;23.90;99.90
17795;DHT22;9021;50.882;4.326;2023-10-08T10:07:37;24.50;99.70
17795;DHT22;9021;50.882;4.326;2023-10-08T10:10:08;25.10;99.10
17795;DHT22;9021;50.882;4.326;2023-10-08T10:12:50;25.40;98.50
17795;DHT22;9021;50.882;4.326;2023-10-08T10:15:15;25.60;98.50
17795;DHT22;9021;50.882;4.326;2023-10-08T10:17:44;25.60;98.30
17795;DHT22;9021;50.882;4.326;2023-10-08T10:20:12;25.30;98.40
17795;DHT22;9021;50.882;4.326;2023-10-08T10:22:39;25.10;98.70
17795;DHT22;9021;50.882;4.326;2023-10-08T10:25:07;25.30;98.60
17795;DHT22;9021;50.882;4.326;2023-10-08T10:30:21;25.20;98.50
17795;DHT22;9021;50.882;4.326;2023-10-08T10:32:51;25.40;98.40
17795;DHT22;9021;50.882;4.326;2023-10-08T10:35:17;25.20;98.60
17795;DHT22;9021;50.882;4.326;2023-10-08T10:37:45;25.40;98.40
17795;DHT22;9021;50.882;4.326;2023-10-08T10:40:20;26.40;98.80
17795;DHT22;9021;50.882;4.326;2023-10-08T10:42:57;25.50;98.30
17795;DHT22;9021;50.882;4.326;2023-10-08T10:45:22;25.70;98.10
17795;DHT22;9021;50.882;4.326;2023-10-08T10:48:20;26.10;97.50
17795;DHT22;9021;50.882;4.326;2023-10-08T10:50:49;26.10;97.80
17795;DHT22;9021;50.882;4.326;2023-10-08T10:53:33;26.00;97.80
17795;DHT22;9021;50.882;4.326;2023-10-08T10:56:23;26.10;97.40
17795;DHT22;9021;50.882;4.326;2023-10-08T10:59:01;25.90;97.40
17795;DHT22;9021;50.882;4.326;2023-10-08T11:01:40;25.80;97.40
17795;DHT22;9021;50.882;4.326;2023-10-08T11:04:15;25.80;97.50
17795;DHT22;9021;50.882;4.326;2023-10-08T11:06:45;25.80;97.60
17795;DHT22;9021;50.882;4.326;2023-10-08T11:09:11;25.90;97.50
17795;DHT22;9021;50.882;4.326;2023-10-08T11:11:42;26.30;97.20
17795;DHT22;9021;50.882;4.326;2023-10-08T11:14:11;27.10;96.70
17795;DHT22;9021;50.882;4.326;2023-10-08T11:16:42;27.70;96.20
17795;DHT22;9021;50.882;4.326;2023-10-08T11:19:09;28.40;95.90
17795;DHT22;9021;50.882;4.326;2023-10-08T11:21:53;29.30;95.10
17795;DHT22;9021;50.882;4.326;2023-10-08T11:24:28;30.70;93.90
17795;DHT22;9021;50.882;4.326;2023-10-08T11:26:53;32.00;92.80
17795;DHT22;9021;50.882;4.326;2023-10-08T11:29:44;32.70;91.90
17795;DHT22;9021;50.882;4.326;2023-10-08T11:32:12;32.10;92.00
17795;DHT22;9021;50.882;4.326;2023-10-08T11:34:46;32.80;91.70
17795;DHT22;9021;50.882;4.326;2023-10-08T11:37:15;33.90;91.00
17795;DHT22;9021;50.882;4.326;2023-10-08T11:39:51;34.70;90.10
17795;DHT22;9021;50.882;4.326;2023-10-08T11:42:18;35.80;89.20
17795;DHT22;9021;50.882;4.326;2023-10-08T11:44:59;35.70;88.10
17795;DHT22;9021;50.882;4.326;2023-10-08T11:47:25;36.20;86.50
17795;DHT22;9021;50.882;4.326;2023-10-08T11:49:56;34.10;84.60
17795;DHT22;9021;50.882;4.326;2023-10-08T11:52:35;35.90;86.00
17795;DHT22;9021;50.882;4.326;2023-10-08T11:55:07;36.30;85.30
17795;DHT22;9021;50.882;4.326;2023-10-08T11:57:32;36.40;84.70
17795;DHT22;9021;50.882;4.326;2023-10-08T12:00:03;36.00;84.40
17795;DHT22;9021;50.882;4.326;2023-10-08T12:02:45;36.00;84.30
17795;DHT22;9021;50.882;4.326;2023-10-08T12:05:10;36.20;84.40
17795;DHT22;9021;50.882;4.326;2023-10-08T12:07:47;35.70;84.10
17795;DHT22;9021;50.882;4.326;2023-10-08T12:10:19;35.80;84.50
17795;DHT22;9021;50.882;4.326;2023-10-08T12:12:51;36.20;84.20
17795;DHT22;9021;50.882;4.326;2023-10-08T12:15:18;36.60;83.30
17795;DHT22;9021;50.882;4.326;2023-10-08T12:17:48;36.70;83.10
17795;DHT22;9021;50.882;4.326;2023-10-08T12:20:32;37.10;82.30
17795;DHT22;9021;50.882;4.326;2023-10-08T12:22:59;36.70;83.10
17795;DHT22;9021;50.882;4.326;2023-10-08T12:25:25;36.30;83.10
17795;DHT22;9021;50.882;4.326;2023-10-08T12:27:50;36.30;83.00
17795;DHT22;9021;50.882;4.326;2023-10-08T12:30:16;35.40;83.90
17795;DHT22;9021;50.882;4.326;2023-10-08T12:32:41;35.60;83.90
17795;DHT22;9021;50.882;4.326;2023-10-08T12:35:09;35.30;83.20
17795;DHT22;9021;50.882;4.326;2023-10-08T12:37:41;35.30;83.80
17795;DHT22;9021;50.882;4.326;2023-10-08T12:40:09;35.10;83.60
17795;DHT22;9021;50.882;4.326;2023-10-08T12:45:16;35.90;83.30
17795;DHT22;9021;50.882;4.326;2023-10-08T12:47:52;35.90;82.30
17795;DHT22;9021;50.882;4.326;2023-10-08T12:50:18;35.50;83.20
17795;DHT22;9021;50.882;4.326;2023-10-08T12:52:57;35.70;82.90
17795;DHT22;9021;50.882;4.326;2023-10-08T12:55:26;35.70;82.60
17795;DHT22;9021;50.882;4.326;2023-10-08T12:57:54;35.30;82.50
17795;DHT22;9021;50.882;4.326;2023-10-08T13:00:31;35.10;83.00
17795;DHT22;9021;50.882;4.326;2023-10-08T13:02:57;34.30;83.30
17795;DHT22;9021;50.882;4.326;2023-10-08T13:05:23;33.70;83.80
17795;DHT22;9021;50.882;4.326;2023-10-08T13:07:54;33.10;84.90
17795;DHT22;9021;50.882;4.326;2023-10-08T13:10:19;32.90;84.40
17795;DHT22;9021;50.882;4.326;2023-10-08T13:12:47;33.10;84.00
17795;DHT22;9021;50.882;4.326;2023-10-08T13:15:13;33.00;83.90
17795;DHT22;9021;50.882;4.326;2023-10-08T13:17:38;33.40;83.60
17795;DHT22;9021;50.882;4.326;2023-10-08T13:20:13;33.70;83.60
17795;DHT22;9021;50.882;4.326;2023-10-08T13:22:40;33.90;83.80
17795;DHT22;9021;50.882;4.326;2023-10-08T13:25:06;33.80;83.20
17795;DHT22;9021;50.882;4.326;2023-10-08T13:27:32;33.70;83.50
17795;DHT22;9021;50.882;4.326;2023-10-08T13:29:57;33.40;83.20
17795;DHT22;9021;50.882;4.326;2023-10-08T13:32:24;32.90;83.50
17795;DHT22;9021;50.882;4.326;2023-10-08T13:34:49;33.00;83.90
17795;DHT22;9021;50.882;4.326;2023-10-08T13:37:15;32.90;84.40
17795;DHT22;9021;50.882;4.326;2023-10-08T13:39:41;32.90;85.40
17795;DHT22;9021;50.882;4.326;2023-10-08T13:42:06;33.10;85.30
17795;DHT22;9021;50.882;4.326;2023-10-08T13:44:32;32.90;85.10
17795;DHT22;9021;50.882;4.326;2023-10-08T13:46:58;32.40;85.00
17795;DHT22;9021;50.882;4.326;2023-10-08T13:49:25;32.00;85.40
17795;DHT22;9021;50.882;4.326;2023-10-08T13:51:54;31.50;86.10
17795;DHT22;9021;50.882;4.326;2023-10-08T13:54:25;31.00;87.20
17795;DHT22;9021;50.882;4.326;2023-10-08T13:56:55;31.00;87.50
17795;DHT22;9021;50.882;4.326;2023-10-08T13:59:20;31.00;87.80
17795;DHT22;9021;50.882;4.326;2023-10-08T14:01:49;30.90;87.70
17795;DHT22;9021;50.882;4.326;2023-10-08T14:04:20;30.90;88.20
17795;DHT22;9021;50.882;4.326;2023-10-08T14:06:46;30.70;88.00
17795;DHT22;9021;50.882;4.326;2023-10-08T14:09:18;30.40;88.20
17795;DHT22;9021;50.882;4.326;2023-10-08T14:11:47;30.10;88.70
17795;DHT22;9021;50.882;4.326;2023-10-08T14:14:13;30.00;89.30
17795;DHT22;9021;50.882;4.326;2023-10-08T14:16:42;29.80;90.00
17795;DHT22;9021;50.882;4.326;2023-10-08T14:19:10;29.70;90.20
17795;DHT22;9021;50.882;4.326;2023-10-08T14:21:38;29.80;90.20
17795;DHT22;9021;50.882;4.326;2023-10-08T14:24:14;29.80;90.40
17795;DHT22;9021;50.882;4.326;2023-10-08T14:26:41;29.80;90.30
17795;DHT22;9021;50.882;4.326;2023-10-08T14:29:08;29.80;89.60
17795;DHT22;9021;50.882;4.326;2023-10-08T14:31:36;29.80;90.00
17795;DHT22;9021;50.882;4.326;2023-10-08T14:34:04;29.70;90.00
17795;DHT22;9021;50.882;4.326;2023-10-08T14:36:48;29.80;90.10
17795;DHT22;9021;50.882;4.326;2023-10-08T14:39:33;29.90;90.10
17795;DHT22;9021;50.882;4.326;2023-10-08T14:42:17;29.90;90.10
17795;DHT22;9021;50.882;4.326;2023-10-08T14:45:01;29.80;89.80
17795;DHT22;9021;50.882;4.326;2023-10-08T14:47:27;29.50;90.00
17795;DHT22;9021;50.882;4.326;2023-10-08T14:49:53;29.30;90.00
17795;DHT22;9021;50.882;4.326;2023-10-08T14:52:19;29.10;90.10
17795;DHT22;9021;50.882;4.326;2023-10-08T14:54:45;28.80;90.40
17795;DHT22;9021;50.882;4.326;2023-10-08T14:57:11;28.70;90.60
17795;DHT22;9021;50.882;4.326;2023-10-08T14:59:40;28.50;90.70
17795;DHT22;9021;50.882;4.326;2023-10-08T15:02:05;28.50;90.80
17795;DHT22;9021;50.882;4.326;2023-10-08T15:04:32;28.40;90.90
17795;DHT22;9021;50.882;4.326;2023-10-08T15:07:01;28.30;90.80
17795;DHT22;9021;50.882;4.326;2023-10-08T15:09:26;28.10;91.00
17795;DHT22;9021;50.882;4.326;2023-10-08T15:11:53;27.90;91.30
17795;DHT22;9021;50.882;4.326;2023-10-08T15:14:22;27.50;91.60
17795;DHT22;9021;50.882;4.326;2023-10-08T15:16:51;27.30;91.80
17795;DHT22;9021;50.882;4.326;2023-10-08T15:19:21;27.10;92.00
17795;DHT22;9021;50.882;4.326;2023-10-08T15:21:47;26.90;92.10
17795;DHT22;9021;50.882;4.326;2023-10-08T15:24:25;26.80;92.30
17795;DHT22;9021;50.882;4.326;2023-10-08T15:26:51;26.50;92.60
17795;DHT22;9021;50.882;4.326;2023-10-08T15:29:18;26.40;92.70
17795;DHT22;9021;50.882;4.326;2023-10-08T15:31:44;26.30;92.90
17795;DHT22;9021;50.882;4.326;2023-10-08T15:34:10;26.30;93.10
17795;DHT22;9021;50.882;4.326;2023-10-08T15:36:40;26.10;93.20
17795;DHT22;9021;50.882;4.326;2023-10-08T15:39:07;26.00;93.40
17795;DHT22;9021;50.882;4.326;2023-10-08T15:41:38;26.00;93.30
17795;DHT22;9021;50.882;4.326;2023-10-08T15:44:04;26.00;93.20
17795;DHT22;9021;50.882;4.326;2023-10-08T15:46:30;22.10;92.10
17795;DHT22;9021;50.882;4.326;2023-10-08T15:48:56;26.00;93.30
17795;DHT22;9021;50.882;4.326;2023-10-08T15:51:22;25.90;93.30
17795;DHT22;9021;50.882;4.326;2023-10-08T15:53:50;25.70;93.60
17795;DHT22;9021;50.882;4.326;2023-10-08T15:56:16;22.40;92.80
17795;DHT22;9021;50.882;4.326;2023-10-08T15:58:41;25.60;93.60
17795;DHT22;9021;50.882;4.326;2023-10-08T16:01:07;25.40;94.10
17795;DHT22;9021;50.882;4.326;2023-10-08T16:03:33;25.30;94.10
17795;DHT22;9021;50.882;4.326;2023-10-08T16:05:59;25.30;94.20
17795;DHT22;9021;50.882;4.326;2023-10-08T16:08:24;25.30;94.60
17795;DHT22;9021;50.882;4.326;2023-10-08T16:10:50;25.20;94.80
17795;DHT22;9021;50.882;4.326;2023-10-08T16:13:15;25.20;95.50
17795;DHT22;9021;50.882;4.326;2023-10-08T16:15:41;25.10;95.40
17795;DHT22;9021;50.882;4.326;2023-10-08T16:18:07;25.10;95.70